Time;durP1;ratioP1;P1;durP2;ratioP2;P2;SDS_P1;SDS_P2;PMS_P1;PMS_P2;Temp;Humidity;BMP_temperature;BMP_pressure;BME280_temperature;BME280_humidity;BME280_pressure;Samples;Min_cycle;Max_cycle;Signal;HPM_P1;HPM_P2
2023/08/26 00:00:28;;;;;;;1.20;0.63;;;14.40;99.90;;;;;;5031472;28;20244;-72
2023/08/26 00:02:54;;;;;;;2.67;0.82;;;14.30;99.90;;;;;;5031591;28;20351;-73
2023/08/26 00:05:20;;;;;;;4.35;0.93;;;14.50;99.90;;;;;;5031592;28;20673;-73
2023/08/26 00:07:45;;;;;;;2.20;0.80;;;14.30;99.90;;;;;;5031849;28;20174;-73
2023/08/26 00:10:11;;;;;;;1.90;1.20;;;14.20;99.90;;;;;;5030117;28;20172;-73
2023/08/26 00:12:37;;;;;;;4.00;1.75;;;14.20;99.90;;;;;;5031367;28;20636;-73
2023/08/26 00:15:03;;;;;;;3.97;1.40;;;14.20;99.90;;;;;;5031383;28;20256;-73
2023/08/26 00:17:29;;;;;;;2.28;1.30;;;14.10;99.90;;;;;;5031289;28;20185;-73
2023/08/26 00:19:54;;;;;;;2.55;1.45;;;13.90;99.90;;;;;;5031216;28;20311;-73
2023/08/26 00:22:20;;;;;;;2.15;0.90;;;14.10;99.90;;;;;;5031098;28;20201;-73
2023/08/26 00:24:47;;;;;;;1.73;0.90;;;14.00;99.90;;;;;;5031339;28;20200;-73
2023/08/26 00:27:13;;;;;;;0.85;0.70;;;14.00;99.90;;;;;;5031052;28;20212;-73
2023/08/26 00:29:40;;;;;;;3.38;1.00;;;14.00;99.90;;;;;;5031059;28;20182;-73
2023/08/26 00:32:06;;;;;;;2.00;1.10;;;14.00;99.90;;;;;;5031139;28;20173;-72
2023/08/26 00:34:31;;;;;;;1.92;0.77;;;13.90;99.90;;;;;;5046221;28;20185;-72
2023/08/26 00:36:57;;;;;;;1.42;0.90;;;13.80;99.90;;;;;;5031098;28;20797;-72
2023/08/26 00:39:22;;;;;;;1.27;0.90;;;13.90;99.90;;;;;;5031109;28;20581;-73
2023/08/26 00:41:48;;;;;;;2.85;1.08;;;13.80;99.90;;;;;;5030685;28;20692;-73
2023/08/26 00:44:14;;;;;;;2.38;0.90;;;13.70;99.90;;;;;;5030850;28;20220;-72
2023/08/26 00:46:39;;;;;;;2.88;1.00;;;13.60;99.90;;;;;;5030645;28;20514;-73
2023/08/26 00:49:06;;;;;;;3.85;0.90;;;13.60;99.90;;;;;;5031117;28;20547;-73
2023/08/26 00:51:32;;;;;;;1.98;1.00;;;13.60;99.90;;;;;;5030969;28;20169;-73
2023/08/26 00:53:58;;;;;;;2.13;1.08;;;14.40;99.90;;;;;;5030221;28;20232;-73
2023/08/26 00:56:24;;;;;;;2.80;1.00;;;13.60;99.90;;;;;;5030562;28;20268;-73
2023/08/26 00:58:50;;;;;;;3.08;1.10;;;13.50;99.90;;;;;;5030785;28;20198;-73
2023/08/26 01:01:15;;;;;;;2.58;1.00;;;13.30;99.90;;;;;;5030908;28;20593;-72
2023/08/26 01:03:41;;;;;;;1.95;1.10;;;13.50;99.90;;;;;;5029380;28;20213;-71
2023/08/26 01:06:07;;;;;;;1.45;0.93;;;13.40;99.90;;;;;;5029500;28;20673;-72
2023/08/26 01:08:33;;;;;;;2.97;1.20;;;13.40;99.90;;;;;;5030847;28;20264;-71
2023/08/26 01:11:17;;;;;;;2.40;1.05;;;13.30;99.90;;;;;;5029332;28;20178;-71
2023/08/26 01:14:12;;;;;;;2.00;1.17;;;13.30;99.90;;;;;;5030746;28;20272;-71
2023/08/26 01:16:42;;;;;;;5.43;1.30;;;13.30;99.90;;;;;;5030479;28;20178;-71
2023/08/26 01:19:44;;;;;;;2.13;1.02;;;13.40;99.90;;;;;;5029303;28;20188;-72
2023/08/26 01:22:10;;;;;;;2.10;1.20;;;13.40;99.90;;;;;;4988845;28;20296;-71
2023/08/26 01:24:40;;;;;;;1.55;1.00;;;13.40;99.90;;;;;;5022495;28;20727;-72
2023/08/26 01:27:07;;;;;;;1.75;1.13;;;13.40;99.90;;;;;;5030631;28;20284;-72
2023/08/26 01:29:32;;;;;;;3.20;1.33;;;13.40;99.90;;;;;;5029367;28;20197;-72
2023/08/26 01:32:15;;;;;;;3.60;1.13;;;13.40;99.90;;;;;;5030606;28;20170;-72
2023/08/26 01:34:42;;;;;;;1.50;1.20;;;13.40;99.90;;;;;;5030740;28;20181;-71
2023/08/26 01:37:10;;;;;;;2.80;1.58;;;13.50;99.90;;;;;;5030581;28;20185;-72
2023/08/26 01:39:37;;;;;;;1.77;1.50;;;13.50;99.90;;;;;;5030448;28;20174;-72
2023/08/26 01:42:04;;;;;;;4.05;1.30;;;13.40;99.90;;;;;;5030300;28;20230;-72
2023/08/26 01:44:30;;;;;;;2.88;1.52;;;13.30;99.90;;;;;;5030622;28;20189;-72
2023/08/26 01:46:57;;;;;;;2.40;1.40;;;13.40;99.90;;;;;;5033658;28;20185;-72
2023/08/26 01:49:23;;;;;;;4.65;1.40;;;13.50;99.90;;;;;;5033950;28;20170;-72
2023/08/26 01:51:49;;;;;;;5.40;1.60;;;13.40;99.90;;;;;;5033787;28;20273;-72
2023/08/26 01:54:15;;;;;;;3.67;1.27;;;13.50;99.90;;;;;;5033848;28;20268;-71
2023/08/26 01:56:40;;;;;;;2.08;1.05;;;13.50;99.90;;;;;;5033804;28;20536;-71
2023/08/26 01:59:06;;;;;;;1.83;1.15;;;13.50;99.90;;;;;;5033641;28;20184;-71
2023/08/26 02:01:33;;;;;;;4.28;1.48;;;13.40;99.90;;;;;;5033095;28;20185;-71
2023/08/26 02:04:00;;;;;;;4.38;1.58;;;13.70;99.90;;;;;;5033067;28;20279;-71
2023/08/26 02:06:26;;;;;;;5.35;1.80;;;13.50;99.90;;;;;;5033534;28;20696;-71
2023/08/26 02:08:54;;;;;;;5.25;1.80;;;13.60;99.90;;;;;;5033601;28;20182;-71
2023/08/26 02:11:19;;;;;;;4.13;2.10;;;13.50;99.90;;;;;;5031621;28;20181;-71
2023/08/26 02:13:45;;;;;;;2.03;1.42;;;13.60;99.90;;;;;;5033229;28;20203;-71
2023/08/26 02:16:10;;;;;;;2.45;1.67;;;13.60;99.90;;;;;;5037952;28;20543;-71
2023/08/26 02:18:36;;;;;;;4.93;1.75;;;13.50;99.90;;;;;;5033262;28;20181;-71
2023/08/26 02:21:01;;;;;;;4.78;1.75;;;13.50;99.90;;;;;;5033349;28;20256;-71
2023/08/26 02:23:27;;;;;;;3.78;1.80;;;13.80;99.90;;;;;;5033263;28;20202;-71
2023/08/26 02:25:53;;;;;;;5.43;2.30;;;13.60;99.90;;;;;;5032939;28;20627;-71
2023/08/26 02:28:18;;;;;;;4.23;2.30;;;13.40;99.90;;;;;;5033086;28;20667;-71
2023/08/26 02:30:44;;;;;;;5.57;2.45;;;13.60;99.90;;;;;;5033311;28;20264;-71
2023/08/26 02:33:09;;;;;;;4.68;2.58;;;13.70;99.90;;;;;;5033034;28;20174;-71
2023/08/26 02:35:35;;;;;;;4.50;2.35;;;13.80;99.90;;;;;;5033263;28;20170;-73
2023/08/26 02:38:01;;;;;;;4.90;2.50;;;13.60;99.90;;;;;;5033001;28;20229;-74
2023/08/26 02:40:26;;;;;;;5.00;2.75;;;13.80;99.90;;;;;;5031480;28;20221;-71
2023/08/26 02:42:52;;;;;;;7.95;3.10;;;13.80;99.90;;;;;;5031705;28;20549;-71
2023/08/26 02:45:18;;;;;;;4.65;2.65;;;13.50;99.90;;;;;;5032830;28;20162;-71
2023/08/26 02:47:44;;;;;;;4.70;2.70;;;13.70;99.90;;;;;;5032849;28;20651;-73
2023/08/26 02:50:10;;;;;;;3.55;2.30;;;13.70;99.90;;;;;;5032945;28;20228;-72
2023/08/26 02:52:35;;;;;;;4.45;2.40;;;14.00;99.90;;;;;;5032802;28;20178;-71
2023/08/26 02:55:01;;;;;;;3.88;2.10;;;13.80;99.90;;;;;;5031376;28;20645;-71
2023/08/26 02:57:27;;;;;;;3.03;2.20;;;13.50;99.90;;;;;;5031512;28;20174;-72
2023/08/26 02:59:52;;;;;;;3.80;2.20;;;13.90;99.90;;;;;;5032398;28;20202;-72
2023/08/26 03:02:21;;;;;;;2.97;1.80;;;13.80;99.90;;;;;;5032494;28;20214;-72
2023/08/26 03:04:47;;;;;;;2.92;1.88;;;13.80;99.90;;;;;;5032424;28;20257;-72
2023/08/26 03:07:12;;;;;;;2.28;1.30;;;14.00;99.90;;;;;;5031220;28;20642;-72
2023/08/26 03:09:38;;;;;;;2.28;1.23;;;13.70;99.90;;;;;;5030839;28;20213;-72
2023/08/26 03:12:03;;;;;;;3.13;1.00;;;14.00;99.90;;;;;;5032274;28;20181;-73
2023/08/26 03:14:29;;;;;;;1.33;1.05;;;13.60;99.90;;;;;;5036441;28;20169;-72
2023/08/26 03:16:55;;;;;;;1.73;1.10;;;13.60;99.90;;;;;;5052102;28;20631;-72
2023/08/26 03:19:21;;;;;;;0.90;0.70;;;13.50;99.90;;;;;;5032802;28;20182;-72
2023/08/26 03:21:47;;;;;;;1.85;0.98;;;13.70;99.90;;;;;;5031601;28;20178;-72
2023/08/26 03:24:16;;;;;;;2.00;1.00;;;13.60;99.90;;;;;;5031729;28;20648;-73
2023/08/26 03:26:42;;;;;;;2.25;0.98;;;13.60;99.90;;;;;;5032058;28;20520;-72
2023/08/26 03:29:08;;;;;;;1.10;0.60;;;13.60;99.90;;;;;;5031944;28;20174;-72
2023/08/26 03:31:34;;;;;;;1.63;0.65;;;13.20;99.90;;;;;;5031843;28;20177;-72
2023/08/26 03:33:59;;;;;;;1.95;0.80;;;13.20;99.90;;;;;;5032020;28;20188;-72
2023/08/26 03:36:25;;;;;;;0.80;0.50;;;13.40;99.90;;;;;;5031966;28;20219;-73
2023/08/26 03:38:51;;;;;;;0.50;0.30;;;13.30;99.90;;;;;;5031919;28;20248;-72
2023/08/26 03:41:16;;;;;;;2.05;0.70;;;13.20;99.90;;;;;;5031703;28;20275;-72
2023/08/26 03:43:42;;;;;;;1.95;0.60;;;13.20;99.90;;;;;;5031712;28;20732;-72
2023/08/26 03:46:07;;;;;;;0.50;0.40;;;13.10;99.90;;;;;;5031699;28;20170;-72
2023/08/26 03:48:33;;;;;;;1.23;0.50;;;13.00;99.90;;;;;;5031743;28;20205;-73
2023/08/26 03:50:59;;;;;;;0.30;0.30;;;13.10;99.90;;;;;;5031649;28;20543;-73
2023/08/26 03:53:25;;;;;;;2.70;0.40;;;12.80;99.90;;;;;;5031581;28;20182;-72
2023/08/26 03:55:50;;;;;;;4.00;0.68;;;12.70;99.90;;;;;;5031653;28;20432;-72
2023/08/26 03:58:16;;;;;;;0.65;0.55;;;13.10;99.90;;;;;;5031574;28;20633;-72
2023/08/26 04:00:42;;;;;;;2.13;0.60;;;12.90;99.90;;;;;;5026923;28;20175;-72
2023/08/26 04:03:09;;;;;;;1.13;0.50;;;12.90;99.90;;;;;;5010515;28;20583;-73
2023/08/26 04:05:35;;;;;;;1.73;0.63;;;13.00;99.90;;;;;;5011808;28;20163;-73
2023/08/26 04:08:00;;;;;;;1.33;0.67;;;13.10;99.90;;;;;;5011149;28;20204;-73
2023/08/26 04:10:26;;;;;;;5.20;0.45;;;13.00;99.90;;;;;;5011583;28;20624;-72
2023/08/26 04:12:52;;;;;;;1.40;0.52;;;13.00;99.90;;;;;;5010345;28;20181;-72
2023/08/26 04:15:18;;;;;;;0.80;0.50;;;13.00;99.90;;;;;;5032840;28;20501;-72
2023/08/26 04:17:44;;;;;;;2.00;0.60;;;13.00;99.90;;;;;;5051179;28;20184;-73
2023/08/26 04:20:11;;;;;;;6.18;0.70;;;13.00;99.90;;;;;;5049331;28;20173;-72
2023/08/26 04:22:37;;;;;;;1.67;0.60;;;12.90;99.90;;;;;;5031184;28;20213;-73
2023/08/26 04:25:04;;;;;;;2.10;0.75;;;13.00;99.90;;;;;;5031043;28;20170;-72
2023/08/26 04:27:33;;;;;;;1.80;0.40;;;12.90;99.90;;;;;;5031158;28;20215;-72
2023/08/26 04:29:59;;;;;;;0.60;0.50;;;12.80;99.90;;;;;;5031224;28;20618;-72
2023/08/26 04:32:25;;;;;;;2.83;0.60;;;12.70;99.90;;;;;;5031103;28;20200;-72
2023/08/26 04:34:51;;;;;;;1.00;0.50;;;12.60;99.90;;;;;;5031142;28;20633;-72
2023/08/26 04:37:20;;;;;;;0.85;0.60;;;12.60;99.90;;;;;;5030970;28;20170;-73
2023/08/26 04:39:46;;;;;;;3.80;0.60;;;12.60;99.90;;;;;;5031103;28;20174;-73
2023/08/26 04:42:12;;;;;;;2.33;0.57;;;12.60;99.90;;;;;;5030905;28;20221;-72
2023/08/26 04:44:38;;;;;;;1.73;0.37;;;12.50;99.90;;;;;;5031018;28;20260;-72
2023/08/26 04:47:03;;;;;;;0.93;0.67;;;12.60;99.90;;;;;;5030725;28;20235;-72
2023/08/26 04:49:31;;;;;;;1.13;0.40;;;12.70;99.90;;;;;;5031030;28;20178;-71
2023/08/26 04:51:56;;;;;;;1.20;0.47;;;12.60;99.90;;;;;;5031184;28;20204;-72
2023/08/26 04:54:22;;;;;;;0.50;0.50;;;;;;;;;;5030922;28;20645;-72
2023/08/26 04:56:48;;;;;;;2.20;0.70;;;12.50;99.90;;;;;;5030941;28;20170;-74
2023/08/26 04:59:14;;;;;;;1.87;0.40;;;12.50;99.90;;;;;;5030850;28;20220;-72
2023/08/26 05:01:39;;;;;;;1.37;0.50;;;12.70;99.90;;;;;;5030920;28;20535;-72
2023/08/26 05:04:05;;;;;;;1.27;0.50;;;12.70;99.90;;;;;;5030858;28;20212;-72
2023/08/26 05:06:30;;;;;;;1.17;0.60;;;12.70;99.90;;;;;;5030707;28;20205;-72
2023/08/26 05:08:56;;;;;;;1.25;0.60;;;12.80;99.90;;;;;;5030853;28;20178;-72
2023/08/26 05:11:22;;;;;;;0.63;0.57;;;12.90;99.90;;;;;;5046377;28;20197;-72
2023/08/26 05:13:47;;;;;;;0.30;0.30;;;13.00;99.90;;;;;;5045998;28;20649;-71
2023/08/26 05:16:13;;;;;;;6.97;0.77;;;12.90;99.90;;;;;;5030328;28;20265;-71
2023/08/26 05:18:38;;;;;;;1.50;0.63;;;12.90;99.90;;;;;;5029321;28;20178;-72
2023/08/26 05:21:04;;;;;;;0.70;0.57;;;12.90;99.90;;;;;;5032839;28;20185;-72
2023/08/26 05:23:31;;;;;;;2.37;0.60;;;12.90;99.90;;;;;;5034341;28;20685;-72
2023/08/26 05:25:57;;;;;;;2.60;0.70;;;13.00;99.90;;;;;;5034467;28;20174;-72
2023/08/26 05:28:22;;;;;;;2.00;0.70;;;13.00;99.90;;;;;;5034431;28;20679;-72
2023/08/26 05:30:48;;;;;;;3.03;0.60;;;13.10;99.90;;;;;;5049395;28;20215;-72
2023/08/26 05:33:14;;;;;;;1.40;0.50;;;13.10;99.90;;;;;;5032505;28;20231;-72
2023/08/26 05:35:39;;;;;;;1.73;0.82;;;13.10;99.90;;;;;;5034172;28;20208;-72
2023/08/26 05:38:05;;;;;;;2.40;0.70;;;13.20;99.90;;;;;;5033900;28;20575;-72
2023/08/26 05:40:30;;;;;;;2.88;0.55;;;13.10;99.90;;;;;;5033788;28;20225;-71
2023/08/26 05:42:57;;;;;;;1.23;0.40;;;13.20;99.90;;;;;;5049100;28;20668;-72
2023/08/26 05:45:24;;;;;;;1.35;0.55;;;13.40;99.90;;;;;;5033679;28;20232;-72
2023/08/26 05:47:50;;;;;;;1.58;0.60;;;13.20;99.90;;;;;;5033635;28;20182;-71
2023/08/26 05:50:15;;;;;;;2.83;0.70;;;13.00;99.90;;;;;;5033459;28;20212;-72
2023/08/26 05:52:41;;;;;;;0.68;0.52;;;13.00;99.90;;;;;;5033210;28;20174;-73
2023/08/26 05:55:08;;;;;;;2.00;0.68;;;13.10;99.90;;;;;;5033840;28;20182;-72
2023/08/26 05:57:33;;;;;;;2.25;0.75;;;13.30;99.90;;;;;;5033747;28;20174;-71
2023/08/26 05:59:59;;;;;;;1.98;0.65;;;13.30;99.90;;;;;;5033280;28;20231;-72
2023/08/26 06:02:25;;;;;;;3.60;0.65;;;13.20;99.90;;;;;;5033538;28;20519;-71
2023/08/26 06:04:50;;;;;;;2.17;0.77;;;13.40;99.90;;;;;;5032372;28;20174;-72
2023/08/26 06:09:52;;;;;;;1.48;0.60;;;13.50;99.90;;;;;;4654908;22;20348;-72
2023/08/26 06:12:17;;;;;;;2.47;0.60;;;13.50;99.90;;;;;;5054432;28;20256;-72
2023/08/26 06:14:43;;;;;;;3.35;0.60;;;13.40;99.90;;;;;;5063154;28;20172;-72
2023/08/26 06:17:09;;;;;;;1.63;0.60;;;13.60;99.90;;;;;;5053191;28;20521;-72
2023/08/26 06:19:34;;;;;;;1.45;0.50;;;13.50;99.90;;;;;;5053381;28;20659;-73
2023/08/26 06:22:00;;;;;;;1.90;0.53;;;13.60;99.90;;;;;;5053379;28;20207;-73
2023/08/26 06:24:26;;;;;;;2.78;0.55;;;13.80;99.90;;;;;;5053349;28;20181;-73
2023/08/26 06:26:52;;;;;;;1.17;0.50;;;14.00;99.90;;;;;;5046482;28;20170;-73
2023/08/26 06:29:19;;;;;;;8.65;0.70;;;13.80;99.90;;;;;;5033099;28;20166;-74
2023/08/26 06:31:45;;;;;;;3.80;0.70;;;15.30;99.90;;;;;;5044946;28;20177;-73
2023/08/26 06:34:11;;;;;;;3.25;0.68;;;14.00;99.90;;;;;;5053047;28;20218;-73
2023/08/26 06:36:36;;;;;;;0.88;0.40;;;14.10;99.90;;;;;;5053135;28;20179;-74
2023/08/26 06:39:03;;;;;;;4.28;0.75;;;14.00;99.90;;;;;;5052857;28;20673;-74
2023/08/26 06:41:32;;;;;;;3.60;0.75;;;14.10;99.90;;;;;;5052872;28;20169;-74
2023/08/26 06:43:58;;;;;;;2.78;0.50;;;14.20;99.90;;;;;;5052679;28;20216;-72
2023/08/26 06:46:23;;;;;;;3.50;0.77;;;14.20;99.90;;;;;;5052616;28;20174;-74
2023/08/26 06:48:49;;;;;;;5.18;0.50;;;14.30;99.90;;;;;;5051964;28;20186;-73
2023/08/26 06:51:15;;;;;;;1.90;0.40;;;14.40;99.90;;;;;;5066693;28;20246;-74
2023/08/26 06:53:40;;;;;;;1.90;0.47;;;14.60;99.90;;;;;;5060835;28;20177;-74
2023/08/26 06:56:06;;;;;;;3.63;0.60;;;14.60;99.90;;;;;;5052424;28;20189;-73
2023/08/26 06:58:32;;;;;;;3.60;0.40;;;14.70;99.90;;;;;;5052525;28;20174;-74
2023/08/26 07:00:58;;;;;;;0.85;0.38;;;14.80;99.90;;;;;;5034731;28;20594;-74
2023/08/26 07:03:24;;;;;;;5.50;0.70;;;14.90;99.90;;;;;;5047362;28;20217;-73
2023/08/26 07:05:50;;;;;;;3.45;0.60;;;15.00;99.90;;;;;;5064567;28;20173;-73
2023/08/26 07:08:16;;;;;;;2.35;0.90;;;15.10;99.90;;;;;;5052260;28;20173;-72
2023/08/26 07:10:45;;;;;;;0.77;0.50;;;15.10;99.90;;;;;;5061380;28;20230;-73
2023/08/26 07:13:11;;;;;;;5.20;0.80;;;15.10;99.90;;;;;;5053321;28;20220;-73
2023/08/26 07:15:36;;;;;;;4.50;0.90;;;15.10;99.90;;;;;;5052017;28;20177;-72
2023/08/26 07:18:02;;;;;;;3.78;0.80;;;15.10;99.90;;;;;;5052108;28;20689;-73
2023/08/26 07:20:28;;;;;;;3.47;0.57;;;15.10;99.90;;;;;;5052069;28;20670;-72
2023/08/26 07:22:53;;;;;;;10.23;0.95;;;15.10;99.90;;;;;;5035567;28;20292;-72
2023/08/26 07:25:19;;;;;;;2.95;0.70;;;15.10;99.90;;;;;;5031759;28;20170;-72
2023/08/26 07:27:45;;;;;;;4.03;0.82;;;15.10;99.90;;;;;;5036899;28;20185;-72
2023/08/26 07:30:11;;;;;;;3.72;1.35;;;15.20;99.90;;;;;;5052027;28;20173;-75
2023/08/26 07:32:37;;;;;;;3.13;1.00;;;15.20;99.90;;;;;;5051937;28;20230;-73
2023/08/26 07:35:04;;;;;;;2.70;1.20;;;15.20;99.90;;;;;;5033997;28;20256;-73
2023/08/26 07:37:29;;;;;;;4.20;1.13;;;15.40;99.90;;;;;;5051785;28;20635;-72
2023/08/26 07:39:55;;;;;;;2.72;1.40;;;15.50;99.90;;;;;;5051825;28;20252;-74
2023/08/26 07:42:21;;;;;;;5.60;1.73;;;15.60;99.90;;;;;;5051292;28;20741;-74
2023/08/26 07:44:46;;;;;;;4.15;1.23;;;15.80;99.90;;;;;;5051369;28;20165;-74
2023/08/26 07:47:12;;;;;;;2.50;1.48;;;15.90;99.90;;;;;;5033660;28;20169;-73
2023/08/26 07:49:37;;;;;;;3.20;1.63;;;16.10;99.90;;;;;;5051554;28;20169;-74
2023/08/26 07:52:03;;;;;;;5.47;1.95;;;16.10;99.90;;;;;;5051587;28;20161;-74
2023/08/26 07:54:29;;;;;;;3.42;1.63;;;16.20;99.90;;;;;;5033639;28;20644;-74
2023/08/26 07:56:55;;;;;;;6.22;1.50;;;16.30;99.90;;;;;;5054723;28;20169;-75
2023/08/26 07:59:20;;;;;;;3.40;1.20;;;16.60;99.90;;;;;;5056799;28;20177;-73
2023/08/26 08:01:47;;;;;;;3.60;1.35;;;16.80;99.90;;;;;;5034388;28;20173;-74
2023/08/26 08:04:13;;;;;;;7.80;1.48;;;16.90;99.90;;;;;;5036641;28;20209;-75
2023/08/26 08:06:38;;;;;;;4.85;1.50;;;16.80;99.90;;;;;;5031517;28;20620;-74
2023/08/26 08:09:04;;;;;;;4.78;1.50;;;16.90;99.90;;;;;;5036677;28;20646;-75
2023/08/26 08:11:30;;;;;;;3.40;1.50;;;17.00;99.90;;;;;;5031234;28;20189;-75
2023/08/26 08:13:55;;;;;;;3.63;1.63;;;17.20;99.90;;;;;;5031354;28;20174;-75
2023/08/26 08:16:21;;;;;;;4.97;1.90;;;17.10;99.90;;;;;;5031137;28;20195;-75
2023/08/26 08:18:46;;;;;;;6.47;1.80;;;17.20;99.90;;;;;;5043586;28;20181;-75
2023/08/26 08:21:12;;;;;;;4.95;1.70;;;17.30;99.90;;;;;;5049453;28;20519;-75
2023/08/26 08:23:38;;;;;;;5.10;1.92;;;17.20;99.90;;;;;;5051463;28;20205;-74
2023/08/26 08:26:03;;;;;;;7.70;2.25;;;17.50;99.90;;;;;;5054526;28;20169;-75
2023/08/26 08:28:29;;;;;;;7.53;2.30;;;17.90;99.90;;;;;;5058997;28;20211;-75
2023/08/26 08:30:55;;;;;;;5.40;1.75;;;18.10;99.90;;;;;;5051097;28;20165;-74
2023/08/26 08:33:20;;;;;;;9.82;2.30;;;18.00;99.90;;;;;;5053839;28;20204;-75
2023/08/26 08:35:46;;;;;;;7.70;2.42;;;17.90;99.90;;;;;;5049232;28;20227;-75
2023/08/26 08:38:12;;;;;;;7.70;2.13;;;17.90;99.90;;;;;;5052570;28;20181;-74
2023/08/26 08:40:38;;;;;;;6.00;1.80;;;17.80;99.90;;;;;;5032660;28;20639;-74
2023/08/26 08:43:06;;;;;;;6.03;1.77;;;17.90;99.90;;;;;;5050617;28;20216;-74
2023/08/26 08:45:33;;;;;;;8.80;1.77;;;17.90;99.90;;;;;;5033479;28;20169;-76
2023/08/26 08:47:59;;;;;;;7.35;2.17;;;17.90;99.90;;;;;;5047207;28;20168;-74
2023/08/26 08:50:24;;;;;;;4.85;1.83;;;17.90;99.90;;;;;;5061791;28;20222;-75
2023/08/26 08:52:55;;;;;;;3.17;1.35;;;18.00;99.90;;;;;;5050508;28;20199;-75
2023/08/26 08:55:21;;;;;;;6.95;1.77;;;18.20;99.90;;;;;;5035236;28;20180;-74
2023/08/26 08:57:50;;;;;;;4.03;1.55;;;18.30;99.90;;;;;;5040884;28;20254;-73
2023/08/26 09:00:17;;;;;;;7.07;2.00;;;18.30;99.90;;;;;;5074871;28;20658;-74
2023/08/26 09:02:46;;;;;;;3.70;1.20;;;18.40;99.90;;;;;;5073280;28;20574;-74
2023/08/26 09:05:12;;;;;;;3.72;0.90;;;18.60;99.90;;;;;;5055340;28;20263;-74
2023/08/26 09:07:39;;;;;;;2.42;0.95;;;18.60;99.90;;;;;;5054904;28;20251;-75
2023/08/26 09:10:05;;;;;;;4.82;1.00;;;18.30;99.90;;;;;;5054556;28;20730;-74
2023/08/26 09:12:31;;;;;;;4.60;0.68;;;18.20;99.90;;;;;;5054520;28;20176;-73
2023/08/26 09:14:57;;;;;;;4.97;1.13;;;18.30;99.90;;;;;;5055065;28;20173;-74
2023/08/26 09:17:23;;;;;;;3.35;1.10;;;18.30;99.90;;;;;;5041782;28;20612;-74
2023/08/26 09:20:00;;;;;;;3.45;1.15;;;18.00;99.90;;;;;;5035144;28;20174;-74
2023/08/26 09:22:30;;;;;;;5.88;1.15;;;18.20;99.90;;;;;;5033685;28;20213;-74
2023/08/26 09:24:57;;;;;;;4.30;1.10;;;18.50;99.90;;;;;;5044509;28;20253;-73
2023/08/26 09:27:23;;;;;;;6.25;1.48;;;18.60;99.90;;;;;;5051966;28;20173;-73
2023/08/26 09:29:49;;;;;;;6.22;1.67;;;18.70;99.90;;;;;;5052034;28;20215;-73
2023/08/26 09:32:15;;;;;;;5.60;1.10;;;18.70;99.90;;;;;;5066171;28;20172;-73
2023/08/26 09:34:40;;;;;;;4.07;1.15;;;18.50;99.90;;;;;;5052954;28;20181;-73
2023/08/26 09:37:09;;;;;;;5.18;1.33;;;18.70;99.90;;;;;;5052245;28;20260;-73
2023/08/26 09:39:46;;;;;;;3.92;1.17;;;18.80;99.90;;;;;;5053901;28;20173;-73
2023/08/26 09:42:12;;;;;;;6.22;1.23;;;18.90;99.90;;;;;;5035500;28;20176;-74
2023/08/26 09:44:40;;;;;;;5.25;1.33;;;19.00;99.90;;;;;;5067113;28;20259;-74
2023/08/26 09:47:06;;;;;;;4.97;1.05;;;19.50;99.90;;;;;;5073671;28;20213;-74
2023/08/26 09:49:34;;;;;;;4.30;1.10;;;19.90;99.90;;;;;;5073745;28;20263;-74
2023/08/26 09:52:00;;;;;;;3.13;0.60;;;20.40;99.90;;;;;;5073763;28;20221;-74
2023/08/26 09:54:26;;;;;;;2.45;0.70;;;20.60;99.90;;;;;;5054273;28;20176;-74
2023/08/26 09:56:52;;;;;;;5.68;0.85;;;20.80;99.90;;;;;;5073825;28;20164;-74
2023/08/26 09:59:18;;;;;;;8.52;0.70;;;21.80;99.90;;;;;;5073590;28;20187;-74
2023/08/26 10:01:44;;;;;;;2.22;0.60;;;21.80;99.90;;;;;;5051614;28;20180;-73
2023/08/26 10:04:13;;;;;;;4.70;0.82;;;22.30;99.90;;;;;;5050673;28;20220;-74
2023/08/26 10:06:43;;;;;;;3.13;0.60;;;22.80;99.90;;;;;;5052868;28;20176;-73
2023/08/26 10:09:39;;;;;;;1.95;0.65;;;22.40;99.90;;;;;;5051356;28;20643;-74
2023/08/26 10:12:13;;;;;;;2.05;0.60;;;22.50;99.90;;;;;;5027964;28;20181;-74
2023/08/26 10:14:42;;;;;;;2.92;1.00;;;22.60;99.90;;;;;;5057295;28;20647;-75
2023/08/26 10:17:14;;;;;;;1.85;0.60;;;22.60;1.00;;;;;;5053365;28;20169;-74
2023/08/26 10:19:41;;;;;;;3.42;0.95;;;22.80;99.90;;;;;;5035383;28;20219;-75
2023/08/26 10:22:09;;;;;;;3.67;0.88;;;23.50;1.00;;;;;;5056835;28;20593;-74
2023/08/26 10:24:37;;;;;;;3.65;0.98;;;23.90;1.00;;;;;;5064490;28;20662;-75
2023/08/26 10:27:05;;;;;;;3.17;0.93;;;23.50;99.90;;;;;;5053074;28;20169;-74
2023/08/26 10:29:31;;;;;;;1.30;0.80;;;22.80;1.00;;;;;;5053211;28;20173;-73
2023/08/26 10:32:13;;;;;;;2.83;0.80;;;21.80;1.00;;;;;;5053229;28;20219;-74
2023/08/26 10:35:00;;;;;;;5.15;1.48;;;20.90;99.90;;;;;;5053132;28;20181;-73
2023/08/26 10:37:27;;;;;;;4.90;1.80;;;20.80;1.00;;;;;;5053185;28;20188;-73
2023/08/26 10:39:54;;;;;;;3.05;1.17;;;20.20;1.00;;;;;;5052795;28;20646;-74
2023/08/26 10:42:20;;;;;;;3.53;0.82;;;19.80;1.00;;;;;;5053002;28;20185;-74
2023/08/26 10:44:56;;;;;;;2.17;0.90;;;19.40;1.00;;;;;;5053010;28;20635;-74
2023/08/26 10:47:36;;;;;;;2.80;0.80;;;19.70;99.90;;;;;;5039223;28;20576;-74
2023/08/26 10:50:15;;;;;;;3.83;1.00;;;19.60;99.90;;;;;;5069130;28;20176;-74
2023/08/26 10:52:44;;;;;;;3.97;1.00;;;19.90;1.00;;;;;;5072728;28;20249;-74
2023/08/26 10:55:23;;;;;;;4.85;1.00;;;20.20;1.00;;;;;;5072528;28;20661;-72
2023/08/26 10:58:07;;;;;;;1.55;0.73;;;20.10;1.00;;;;;;5056393;28;20180;-72
2023/08/26 11:00:37;;;;;;;5.65;0.90;;;20.10;1.00;;;;;;5049564;28;20169;-73
2023/08/26 11:03:05;;;;;;;7.20;1.42;;;19.80;1.00;;;;;;5052516;28;20734;-75
2023/08/26 11:05:31;;;;;;;3.20;0.73;;;20.20;99.90;;;;;;5052405;28;20173;-75
2023/08/26 11:07:56;;;;;;;5.40;0.80;;;21.10;1.00;;;;;;5067122;28;20210;-75
2023/08/26 11:10:41;;;;;;;2.85;0.88;;;22.10;1.00;;;;;;5072152;28;20559;-75
2023/08/26 11:13:08;;;;;;;2.10;0.85;;;23.30;1.00;;;;;;5071979;28;20705;-77
2023/08/26 11:15:39;;;;;;;3.25;0.88;;;24.20;1.00;;;;;;5069634;28;20245;-76
2023/08/26 11:18:06;;;;;;;2.75;0.90;;;24.50;99.90;;;;;;5040203;28;20211;-76
2023/08/26 11:20:32;;;;;;;6.30;0.90;;;22.90;1.00;;;;;;5071294;28;20180;-76
2023/08/26 11:22:58;;;;;;;6.07;1.30;;;22.60;99.90;;;;;;5065684;28;20220;-74
2023/08/26 11:25:24;;;;;;;2.55;0.98;;;23.30;1.00;;;;;;5064737;28;20177;-76
2023/08/26 11:27:51;;;;;;;4.63;1.20;;;23.60;1.00;;;;;;5071929;28;20164;-76
2023/08/26 11:30:17;;;;;;;4.63;1.17;;;22.90;99.90;;;;;;5072026;28;20256;-75
2023/08/26 11:32:47;;;;;;;4.45;1.20;;;22.70;99.90;;;;;;5053888;28;20259;-75
2023/08/26 11:35:13;;;;;;;4.65;0.90;;;23.80;9.40;;;;;;5069975;28;20665;-75
2023/08/26 11:37:43;;;;;;;3.88;1.13;;;23.80;1.00;;;;;;5071584;28;20165;-75
2023/08/26 11:40:15;;;;;;;2.45;0.75;;;24.40;1.00;;;;;;5067871;28;20547;-74
2023/08/26 11:42:42;;;;;;;3.20;1.00;;;25.00;1.00;;;;;;5068381;28;20242;-74
2023/08/26 11:45:12;;;;;;;4.00;1.00;;;25.00;1.00;;;;;;5066907;28;20173;-74
2023/08/26 11:47:39;;;;;;;1.20;0.80;;;25.70;1.00;;;;;;5067009;28;20186;-74
2023/08/26 11:50:06;;;;;;;4.38;1.13;;;26.30;1.00;;;;;;5062425;28;20300;-75
2023/08/26 11:52:34;;;;;;;5.65;1.00;;;26.00;1.00;;;;;;5073116;28;20227;-76
2023/08/26 11:55:04;;;;;;;4.38;1.17;;;25.10;1.00;;;;;;5088224;28;20176;-74
2023/08/26 11:57:32;;;;;;;3.47;1.20;;;24.80;1.00;;;;;;5068401;28;20172;-74
2023/08/26 12:00:24;;;;;;;5.22;1.20;;;25.30;99.90;;;;;;5068098;28;20208;-75
2023/08/26 12:02:52;;;;;;;5.00;1.17;;;24.10;99.90;;;;;;5064816;28;20180;-75
2023/08/26 12:05:19;;;;;;;2.50;0.73;;;23.70;99.90;;;;;;5048279;28;20208;-75
2023/08/26 12:07:44;;;;;;;2.85;0.80;;;22.30;99.90;;;;;;5052965;28;20506;-74
2023/08/26 12:10:11;;;;;;;2.80;0.68;;;21.30;99.90;;;;;;5067881;28;20642;-74
2023/08/26 12:12:38;;;;;;;2.53;0.60;;;20.50;1.00;;;;;;5066774;28;20173;-74
2023/08/26 12:15:12;;;;;;;4.78;0.52;;;20.10;1.00;;;;;;5049130;28;20531;-74
2023/08/26 12:17:48;;;;;;;1.67;0.50;;;19.70;1.00;;;;;;5047636;28;20176;-74
2023/08/26 12:20:29;;;;;;;2.47;0.30;;;19.60;1.00;;;;;;5057459;28;20188;-74
2023/08/26 12:22:56;;;;;;;1.45;0.60;;;19.30;1.00;;;;;;5067543;28;20175;-75
2023/08/26 12:25:32;;;;;;;2.50;0.68;;;19.20;1.00;;;;;;5065767;28;20181;-74
2023/08/26 12:28:24;;;;;;;2.75;0.63;;;19.00;1.00;;;;;;5067629;28;20180;-74
2023/08/26 12:30:51;;;;;;;1.88;0.60;;;18.80;1.00;;;;;;5065239;28;20192;-74
2023/08/26 12:33:17;;;;;;;2.60;0.70;;;18.80;99.90;;;;;;5064573;28;20221;-74
2023/08/26 12:35:43;;;;;;;1.20;0.60;;;18.70;99.90;;;;;;5067366;28;20260;-74
2023/08/26 12:38:08;;;;;;;2.95;0.70;;;18.40;1.00;;;;;;5067105;28;20220;-74
2023/08/26 12:40:37;;;;;;;3.22;0.90;;;18.10;1.00;;;;;;5067328;28;20184;-74
2023/08/26 12:43:06;;;;;;;3.28;1.02;;;18.80;99.90;;;;;;5065849;28;20208;-73
2023/08/26 12:45:34;;;;;;;2.15;1.13;;;18.50;1.00;;;;;;5067096;28;20173;-73
2023/08/26 12:48:00;;;;;;;6.25;1.42;;;19.10;1.00;;;;;;5064243;28;20187;-74
2023/08/26 12:50:26;;;;;;;3.92;1.10;;;20.30;99.90;;;;;;5058993;28;20177;-75